sensor_id;sensor_type;location;lat;lon;timestamp;P1;durP1;ratioP1;P2;durP2;ratioP2
5801;SDS011;2927;49.366;8.530;2022-12-18T00:01:02;50.13;;;15.17;;
5801;SDS011;2927;49.366;8.530;2022-12-18T00:03:33;59.03;;;16.27;;
5801;SDS011;2927;49.366;8.530;2022-12-18T00:05:59;50.23;;;14.90;;
5801;SDS011;2927;49.366;8.530;2022-12-18T00:08:25;49.97;;;15.60;;
5801;SDS011;2927;49.366;8.530;2022-12-18T00:10:50;44.00;;;16.00;;
5801;SDS011;2927;49.366;8.530;2022-12-18T00:13:16;65.43;;;18.37;;
5801;SDS011;2927;49.366;8.530;2022-12-18T00:15:41;59.27;;;15.20;;
5801;SDS011;2927;49.366;8.530;2022-12-18T00:18:07;45.00;;;14.80;;
5801;SDS011;2927;49.366;8.530;2022-12-18T00:20:36;46.67;;;15.90;;
5801;SDS011;2927;49.366;8.530;2022-12-18T00:23:03;45.87;;;15.37;;
5801;SDS011;2927;49.366;8.530;2022-12-18T00:25:29;52.73;;;17.93;;
5801;SDS011;2927;49.366;8.530;2022-12-18T00:27:57;46.73;;;15.20;;
5801;SDS011;2927;49.366;8.530;2022-12-18T00:30:22;60.00;;;18.10;;
5801;SDS011;2927;49.366;8.530;2022-12-18T00:32:48;48.27;;;16.67;;
5801;SDS011;2927;49.366;8.530;2022-12-18T00:35:13;46.17;;;15.40;;
5801;SDS011;2927;49.366;8.530;2022-12-18T00:37:39;46.50;;;15.80;;
5801;SDS011;2927;49.366;8.530;2022-12-18T00:40:05;59.23;;;15.37;;
5801;SDS011;2927;49.366;8.530;2022-12-18T00:42:31;37.70;;;15.17;;
5801;SDS011;2927;49.366;8.530;2022-12-18T00:45:15;51.50;;;16.37;;
5801;SDS011;2927;49.366;8.530;2022-12-18T00:47:41;48.33;;;15.83;;
5801;SDS011;2927;49.366;8.530;2022-12-18T00:50:06;45.63;;;13.70;;
5801;SDS011;2927;49.366;8.530;2022-12-18T00:52:32;47.43;;;15.77;;
5801;SDS011;2927;49.366;8.530;2022-12-18T00:54:58;47.63;;;17.00;;
5801;SDS011;2927;49.366;8.530;2022-12-18T00:57:23;41.83;;;15.10;;
5801;SDS011;2927;49.366;8.530;2022-12-18T00:59:49;47.13;;;14.93;;
5801;SDS011;2927;49.366;8.530;2022-12-18T01:02:14;46.87;;;15.63;;
5801;SDS011;2927;49.366;8.530;2022-12-18T01:04:40;49.83;;;15.03;;
5801;SDS011;2927;49.366;8.530;2022-12-18T01:07:05;51.30;;;15.13;;
5801;SDS011;2927;49.366;8.530;2022-12-18T01:09:31;47.60;;;15.30;;
5801;SDS011;2927;49.366;8.530;2022-12-18T01:11:56;84.47;;;16.07;;
5801;SDS011;2927;49.366;8.530;2022-12-18T01:14:22;56.83;;;16.60;;
5801;SDS011;2927;49.366;8.530;2022-12-18T01:16:47;63.43;;;15.90;;
5801;SDS011;2927;49.366;8.530;2022-12-18T01:19:13;38.40;;;12.60;;
5801;SDS011;2927;49.366;8.530;2022-12-18T01:21:38;51.50;;;15.83;;
5801;SDS011;2927;49.366;8.530;2022-12-18T01:24:04;48.50;;;16.00;;
5801;SDS011;2927;49.366;8.530;2022-12-18T01:26:30;48.70;;;15.63;;
5801;SDS011;2927;49.366;8.530;2022-12-18T01:28:56;41.33;;;14.87;;
5801;SDS011;2927;49.366;8.530;2022-12-18T01:31:32;55.77;;;17.13;;
5801;SDS011;2927;49.366;8.530;2022-12-18T01:34:00;42.50;;;16.90;;
5801;SDS011;2927;49.366;8.530;2022-12-18T01:36:29;41.07;;;14.87;;
5801;SDS011;2927;49.366;8.530;2022-12-18T01:38:59;56.67;;;15.10;;
5801;SDS011;2927;49.366;8.530;2022-12-18T01:41:26;43.60;;;15.80;;
5801;SDS011;2927;49.366;8.530;2022-12-18T01:49:57;50.70;;;16.70;;
5801;SDS011;2927;49.366;8.530;2022-12-18T01:52:28;58.73;;;16.90;;
5801;SDS011;2927;49.366;8.530;2022-12-18T01:54:55;47.40;;;16.17;;
5801;SDS011;2927;49.366;8.530;2022-12-18T01:57:22;53.37;;;15.80;;
5801;SDS011;2927;49.366;8.530;2022-12-18T01:59:49;51.60;;;16.87;;
5801;SDS011;2927;49.366;8.530;2022-12-18T02:02:17;45.40;;;14.77;;
5801;SDS011;2927;49.366;8.530;2022-12-18T02:04:44;38.53;;;14.70;;
5801;SDS011;2927;49.366;8.530;2022-12-18T02:07:31;63.50;;;17.70;;
5801;SDS011;2927;49.366;8.530;2022-12-18T02:12:54;40.50;;;13.37;;
5801;SDS011;2927;49.366;8.530;2022-12-18T02:15:27;53.53;;;16.07;;
5801;SDS011;2927;49.366;8.530;2022-12-18T02:18:10;41.83;;;14.00;;
5801;SDS011;2927;49.366;8.530;2022-12-18T02:20:51;37.87;;;13.40;;
5801;SDS011;2927;49.366;8.530;2022-12-18T02:26:06;42.30;;;14.27;;
5801;SDS011;2927;49.366;8.530;2022-12-18T02:28:42;45.27;;;14.07;;
5801;SDS011;2927;49.366;8.530;2022-12-18T02:31:19;48.17;;;16.37;;
5801;SDS011;2927;49.366;8.530;2022-12-18T02:33:49;34.47;;;14.00;;
5801;SDS011;2927;49.366;8.530;2022-12-18T02:36:16;40.53;;;13.90;;
5801;SDS011;2927;49.366;8.530;2022-12-18T02:38:43;41.33;;;14.97;;
5801;SDS011;2927;49.366;8.530;2022-12-18T02:41:10;45.23;;;15.07;;
5801;SDS011;2927;49.366;8.530;2022-12-18T02:43:37;49.63;;;15.00;;
5801;SDS011;2927;49.366;8.530;2022-12-18T02:46:23;54.90;;;17.00;;
5801;SDS011;2927;49.366;8.530;2022-12-18T02:49:01;41.90;;;14.20;;
5801;SDS011;2927;49.366;8.530;2022-12-18T02:57:38;42.23;;;14.30;;
5801;SDS011;2927;49.366;8.530;2022-12-18T03:00:24;35.03;;;14.07;;
5801;SDS011;2927;49.366;8.530;2022-12-18T03:02:59;47.70;;;14.27;;
5801;SDS011;2927;49.366;8.530;2022-12-18T03:05:47;51.07;;;12.10;;
5801;SDS011;2927;49.366;8.530;2022-12-18T03:08:21;44.90;;;16.50;;
5801;SDS011;2927;49.366;8.530;2022-12-18T03:11:02;43.60;;;15.80;;
5801;SDS011;2927;49.366;8.530;2022-12-18T03:13:34;39.30;;;14.03;;
5801;SDS011;2927;49.366;8.530;2022-12-18T03:16:10;45.77;;;14.20;;
5801;SDS011;2927;49.366;8.530;2022-12-18T03:21:10;38.73;;;12.70;;
5801;SDS011;2927;49.366;8.530;2022-12-18T03:23:43;41.90;;;14.57;;
5801;SDS011;2927;49.366;8.530;2022-12-18T03:26:15;48.43;;;15.20;;
5801;SDS011;2927;49.366;8.530;2022-12-18T03:28:44;42.87;;;15.63;;
5801;SDS011;2927;49.366;8.530;2022-12-18T03:31:14;40.37;;;14.47;;
5801;SDS011;2927;49.366;8.530;2022-12-18T03:33:53;56.27;;;15.50;;
5801;SDS011;2927;49.366;8.530;2022-12-18T03:36:21;47.50;;;14.30;;
5801;SDS011;2927;49.366;8.530;2022-12-18T03:38:47;46.33;;;15.70;;
5801;SDS011;2927;49.366;8.530;2022-12-18T03:41:47;102.47;;;16.90;;
5801;SDS011;2927;49.366;8.530;2022-12-18T03:50:18;56.17;;;18.10;;
5801;SDS011;2927;49.366;8.530;2022-12-18T03:52:49;59.03;;;16.30;;
5801;SDS011;2927;49.366;8.530;2022-12-18T03:55:22;49.77;;;17.97;;
5801;SDS011;2927;49.366;8.530;2022-12-18T03:57:50;48.33;;;16.93;;
5801;SDS011;2927;49.366;8.530;2022-12-18T04:00:18;93.93;;;21.87;;
5801;SDS011;2927;49.366;8.530;2022-12-18T04:02:46;60.33;;;18.53;;
5801;SDS011;2927;49.366;8.530;2022-12-18T04:05:17;56.40;;;12.93;;
5801;SDS011;2927;49.366;8.530;2022-12-18T04:07:47;51.33;;;15.67;;
5801;SDS011;2927;49.366;8.530;2022-12-18T04:10:15;64.37;;;16.57;;
5801;SDS011;2927;49.366;8.530;2022-12-18T04:12:41;49.90;;;18.20;;
5801;SDS011;2927;49.366;8.530;2022-12-18T04:15:07;55.70;;;14.07;;
5801;SDS011;2927;49.366;8.530;2022-12-18T04:17:33;41.60;;;15.50;;
5801;SDS011;2927;49.366;8.530;2022-12-18T04:19:59;53.87;;;15.10;;
5801;SDS011;2927;49.366;8.530;2022-12-18T04:22:25;50.90;;;15.97;;
5801;SDS011;2927;49.366;8.530;2022-12-18T04:24:50;62.27;;;16.93;;
5801;SDS011;2927;49.366;8.530;2022-12-18T04:27:16;49.83;;;16.07;;
5801;SDS011;2927;49.366;8.530;2022-12-18T04:29:41;47.03;;;14.67;;
5801;SDS011;2927;49.366;8.530;2022-12-18T04:32:07;46.13;;;15.80;;
5801;SDS011;2927;49.366;8.530;2022-12-18T04:34:33;42.80;;;15.60;;
5801;SDS011;2927;49.366;8.530;2022-12-18T04:36:59;52.17;;;16.43;;
5801;SDS011;2927;49.366;8.530;2022-12-18T04:39:24;60.93;;;17.67;;
5801;SDS011;2927;49.366;8.530;2022-12-18T04:41:50;53.27;;;17.33;;
5801;SDS011;2927;49.366;8.530;2022-12-18T04:44:15;52.10;;;17.20;;
5801;SDS011;2927;49.366;8.530;2022-12-18T04:46:41;64.37;;;18.90;;
5801;SDS011;2927;49.366;8.530;2022-12-18T04:49:07;79.77;;;18.33;;
5801;SDS011;2927;49.366;8.530;2022-12-18T04:51:32;60.23;;;16.10;;
5801;SDS011;2927;49.366;8.530;2022-12-18T04:53:58;54.23;;;17.77;;
5801;SDS011;2927;49.366;8.530;2022-12-18T04:56:23;69.73;;;18.17;;
5801;SDS011;2927;49.366;8.530;2022-12-18T04:58:49;56.40;;;17.60;;
5801;SDS011;2927;49.366;8.530;2022-12-18T05:01:15;66.47;;;16.90;;
5801;SDS011;2927;49.366;8.530;2022-12-18T05:03:42;69.13;;;19.10;;
5801;SDS011;2927;49.366;8.530;2022-12-18T05:06:08;58.20;;;17.00;;
5801;SDS011;2927;49.366;8.530;2022-12-18T05:08:34;67.10;;;17.20;;
5801;SDS011;2927;49.366;8.530;2022-12-18T05:11:00;62.27;;;17.70;;
5801;SDS011;2927;49.366;8.530;2022-12-18T05:13:27;76.80;;;17.37;;
5801;SDS011;2927;49.366;8.530;2022-12-18T05:15:54;49.10;;;16.57;;
5801;SDS011;2927;49.366;8.530;2022-12-18T05:18:20;53.60;;;13.73;;
5801;SDS011;2927;49.366;8.530;2022-12-18T05:20:46;44.03;;;14.80;;
5801;SDS011;2927;49.366;8.530;2022-12-18T05:23:12;43.33;;;15.33;;
5801;SDS011;2927;49.366;8.530;2022-12-18T05:25:37;79.50;;;19.57;;
5801;SDS011;2927;49.366;8.530;2022-12-18T05:28:03;56.97;;;17.17;;
5801;SDS011;2927;49.366;8.530;2022-12-18T05:30:29;49.90;;;17.63;;
5801;SDS011;2927;49.366;8.530;2022-12-18T05:32:54;54.27;;;18.53;;
5801;SDS011;2927;49.366;8.530;2022-12-18T05:35:20;51.33;;;15.40;;
5801;SDS011;2927;49.366;8.530;2022-12-18T05:37:46;71.07;;;18.10;;
5801;SDS011;2927;49.366;8.530;2022-12-18T05:40:12;54.67;;;15.23;;
5801;SDS011;2927;49.366;8.530;2022-12-18T05:42:37;44.03;;;15.40;;
5801;SDS011;2927;49.366;8.530;2022-12-18T05:45:03;53.73;;;17.40;;
5801;SDS011;2927;49.366;8.530;2022-12-18T05:47:30;46.33;;;17.77;;
5801;SDS011;2927;49.366;8.530;2022-12-18T05:49:55;44.57;;;15.93;;
5801;SDS011;2927;49.366;8.530;2022-12-18T05:52:21;46.40;;;14.93;;
5801;SDS011;2927;49.366;8.530;2022-12-18T05:54:47;67.07;;;16.00;;
5801;SDS011;2927;49.366;8.530;2022-12-18T05:57:13;51.27;;;14.17;;
5801;SDS011;2927;49.366;8.530;2022-12-18T05:59:38;39.40;;;14.90;;
5801;SDS011;2927;49.366;8.530;2022-12-18T06:02:04;41.57;;;12.20;;
5801;SDS011;2927;49.366;8.530;2022-12-18T06:04:29;57.87;;;16.97;;
5801;SDS011;2927;49.366;8.530;2022-12-18T06:06:55;57.70;;;15.37;;
5801;SDS011;2927;49.366;8.530;2022-12-18T06:09:20;51.80;;;15.43;;
5801;SDS011;2927;49.366;8.530;2022-12-18T06:11:46;48.73;;;16.97;;
5801;SDS011;2927;49.366;8.530;2022-12-18T06:14:11;55.47;;;17.00;;
5801;SDS011;2927;49.366;8.530;2022-12-18T06:16:37;47.13;;;15.10;;
5801;SDS011;2927;49.366;8.530;2022-12-18T06:19:03;61.13;;;18.57;;
5801;SDS011;2927;49.366;8.530;2022-12-18T06:21:30;47.00;;;16.50;;
5801;SDS011;2927;49.366;8.530;2022-12-18T06:23:57;57.77;;;16.70;;
5801;SDS011;2927;49.366;8.530;2022-12-18T06:26:22;58.10;;;18.33;;
5801;SDS011;2927;49.366;8.530;2022-12-18T06:28:48;50.27;;;17.47;;
5801;SDS011;2927;49.366;8.530;2022-12-18T06:31:14;59.17;;;16.23;;
5801;SDS011;2927;49.366;8.530;2022-12-18T06:33:39;37.97;;;15.47;;
5801;SDS011;2927;49.366;8.530;2022-12-18T06:36:11;55.87;;;17.73;;
5801;SDS011;2927;49.366;8.530;2022-12-18T06:38:40;56.63;;;16.70;;
5801;SDS011;2927;49.366;8.530;2022-12-18T06:41:07;55.83;;;16.50;;
5801;SDS011;2927;49.366;8.530;2022-12-18T06:43:33;51.50;;;15.80;;
5801;SDS011;2927;49.366;8.530;2022-12-18T06:45:59;52.90;;;16.23;;
5801;SDS011;2927;49.366;8.530;2022-12-18T06:48:25;44.60;;;16.60;;
5801;SDS011;2927;49.366;8.530;2022-12-18T06:50:51;58.00;;;17.20;;
5801;SDS011;2927;49.366;8.530;2022-12-18T06:53:17;40.87;;;14.33;;
5801;SDS011;2927;49.366;8.530;2022-12-18T06:55:42;56.23;;;16.93;;
5801;SDS011;2927;49.366;8.530;2022-12-18T06:58:08;50.27;;;15.87;;
5801;SDS011;2927;49.366;8.530;2022-12-18T07:00:34;42.43;;;17.10;;
5801;SDS011;2927;49.366;8.530;2022-12-18T07:03:00;53.00;;;15.93;;
5801;SDS011;2927;49.366;8.530;2022-12-18T07:05:25;61.40;;;18.70;;
5801;SDS011;2927;49.366;8.530;2022-12-18T07:07:51;50.30;;;18.00;;
5801;SDS011;2927;49.366;8.530;2022-12-18T07:10:17;58.60;;;17.40;;
5801;SDS011;2927;49.366;8.530;2022-12-18T07:12:42;44.77;;;15.40;;
5801;SDS011;2927;49.366;8.530;2022-12-18T07:15:08;46.87;;;16.13;;
5801;SDS011;2927;49.366;8.530;2022-12-18T07:17:34;54.47;;;17.00;;
5801;SDS011;2927;49.366;8.530;2022-12-18T07:20:00;44.77;;;13.93;;
5801;SDS011;2927;49.366;8.530;2022-12-18T07:22:26;48.63;;;16.50;;
5801;SDS011;2927;49.366;8.530;2022-12-18T07:24:51;45.27;;;15.10;;
5801;SDS011;2927;49.366;8.530;2022-12-18T07:27:17;42.80;;;15.20;;
5801;SDS011;2927;49.366;8.530;2022-12-18T07:29:42;54.20;;;15.37;;
5801;SDS011;2927;49.366;8.530;2022-12-18T07:32:08;43.13;;;16.80;;
5801;SDS011;2927;49.366;8.530;2022-12-18T07:34:34;45.73;;;15.53;;
5801;SDS011;2927;49.366;8.530;2022-12-18T07:36:59;60.27;;;17.03;;
5801;SDS011;2927;49.366;8.530;2022-12-18T07:39:25;55.50;;;14.73;;
5801;SDS011;2927;49.366;8.530;2022-12-18T07:41:50;37.90;;;11.60;;
5801;SDS011;2927;49.366;8.530;2022-12-18T07:44:35;10.37;;;7.50;;
5801;SDS011;2927;49.366;8.530;2022-12-18T07:47:00;49.50;;;14.90;;
5801;SDS011;2927;49.366;8.530;2022-12-18T07:49:27;39.60;;;14.00;;
5801;SDS011;2927;49.366;8.530;2022-12-18T07:51:54;48.53;;;14.47;;
5801;SDS011;2927;49.366;8.530;2022-12-18T07:54:20;47.30;;;15.47;;
5801;SDS011;2927;49.366;8.530;2022-12-18T07:56:45;45.50;;;15.47;;
5801;SDS011;2927;49.366;8.530;2022-12-18T07:59:11;55.30;;;15.53;;
5801;SDS011;2927;49.366;8.530;2022-12-18T08:01:36;40.77;;;15.30;;
5801;SDS011;2927;49.366;8.530;2022-12-18T08:04:02;46.37;;;17.50;;
5801;SDS011;2927;49.366;8.530;2022-12-18T08:06:27;43.47;;;16.70;;
5801;SDS011;2927;49.366;8.530;2022-12-18T08:08:53;57.27;;;16.50;;
5801;SDS011;2927;49.366;8.530;2022-12-18T08:11:20;53.53;;;16.77;;
5801;SDS011;2927;49.366;8.530;2022-12-18T08:13:46;43.83;;;14.47;;
5801;SDS011;2927;49.366;8.530;2022-12-18T08:16:12;53.23;;;18.50;;
5801;SDS011;2927;49.366;8.530;2022-12-18T08:18:38;50.43;;;17.87;;
5801;SDS011;2927;49.366;8.530;2022-12-18T08:23:39;48.07;;;16.40;;
5801;SDS011;2927;49.366;8.530;2022-12-18T08:26:05;42.37;;;16.77;;
5801;SDS011;2927;49.366;8.530;2022-12-18T08:28:31;42.37;;;17.00;;
5801;SDS011;2927;49.366;8.530;2022-12-18T08:30:57;42.83;;;16.43;;
5801;SDS011;2927;49.366;8.530;2022-12-18T08:33:22;52.37;;;17.20;;
5801;SDS011;2927;49.366;8.530;2022-12-18T08:35:48;56.53;;;19.33;;
5801;SDS011;2927;49.366;8.530;2022-12-18T08:38:13;51.87;;;18.27;;
5801;SDS011;2927;49.366;8.530;2022-12-18T08:40:39;54.93;;;18.43;;
5801;SDS011;2927;49.366;8.530;2022-12-18T08:43:05;56.97;;;19.17;;
5801;SDS011;2927;49.366;8.530;2022-12-18T08:45:59;59.53;;;19.73;;
5801;SDS011;2927;49.366;8.530;2022-12-18T08:48:25;63.73;;;20.40;;
5801;SDS011;2927;49.366;8.530;2022-12-18T08:50:54;58.00;;;22.33;;
5801;SDS011;2927;49.366;8.530;2022-12-18T08:53:23;66.00;;;24.20;;
5801;SDS011;2927;49.366;8.530;2022-12-18T08:55:49;67.17;;;24.50;;
5801;SDS011;2927;49.366;8.530;2022-12-18T08:58:14;66.70;;;23.77;;
5801;SDS011;2927;49.366;8.530;2022-12-18T09:00:40;72.20;;;23.70;;
5801;SDS011;2927;49.366;8.530;2022-12-18T09:03:10;69.53;;;25.53;;
5801;SDS011;2927;49.366;8.530;2022-12-18T09:05:39;66.10;;;24.10;;
5801;SDS011;2927;49.366;8.530;2022-12-18T09:08:05;63.67;;;24.33;;
5801;SDS011;2927;49.366;8.530;2022-12-18T09:10:31;68.70;;;23.10;;
5801;SDS011;2927;49.366;8.530;2022-12-18T09:12:57;64.80;;;23.13;;
5801;SDS011;2927;49.366;8.530;2022-12-18T09:15:22;69.07;;;23.43;;
5801;SDS011;2927;49.366;8.530;2022-12-18T09:17:48;59.20;;;20.50;;
5801;SDS011;2927;49.366;8.530;2022-12-18T09:20:14;62.70;;;22.50;;
5801;SDS011;2927;49.366;8.530;2022-12-18T09:22:43;64.23;;;23.90;;
5801;SDS011;2927;49.366;8.530;2022-12-18T09:25:09;58.23;;;21.10;;
5801;SDS011;2927;49.366;8.530;2022-12-18T09:27:35;57.60;;;20.37;;
5801;SDS011;2927;49.366;8.530;2022-12-18T09:30:00;59.13;;;21.13;;
5801;SDS011;2927;49.366;8.530;2022-12-18T09:32:26;57.63;;;22.93;;
5801;SDS011;2927;49.366;8.530;2022-12-18T09:34:52;55.53;;;20.73;;
5801;SDS011;2927;49.366;8.530;2022-12-18T09:37:17;44.60;;;19.13;;
5801;SDS011;2927;49.366;8.530;2022-12-18T09:39:43;48.30;;;18.67;;
5801;SDS011;2927;49.366;8.530;2022-12-18T09:42:12;50.00;;;20.20;;
5801;SDS011;2927;49.366;8.530;2022-12-18T09:44:53;44.60;;;16.50;;
5801;SDS011;2927;49.366;8.530;2022-12-18T09:47:27;46.80;;;20.30;;
5801;SDS011;2927;49.366;8.530;2022-12-18T09:50:05;47.57;;;17.13;;
5801;SDS011;2927;49.366;8.530;2022-12-18T09:52:45;37.37;;;16.67;;
5801;SDS011;2927;49.366;8.530;2022-12-18T09:57:47;43.67;;;17.80;;
5801;SDS011;2927;49.366;8.530;2022-12-18T10:00:19;48.60;;;17.00;;
5801;SDS011;2927;49.366;8.530;2022-12-18T10:02:52;49.67;;;17.13;;
5801;SDS011;2927;49.366;8.530;2022-12-18T10:08:37;47.87;;;19.77;;
5801;SDS011;2927;49.366;8.530;2022-12-18T10:19:42;44.33;;;16.93;;
5801;SDS011;2927;49.366;8.530;2022-12-18T10:25:14;46.70;;;18.03;;
5801;SDS011;2927;49.366;8.530;2022-12-18T10:27:40;33.27;;;14.33;;
5801;SDS011;2927;49.366;8.530;2022-12-18T10:30:16;29.60;;;14.23;;
5801;SDS011;2927;49.366;8.530;2022-12-18T10:32:44;42.37;;;16.33;;
5801;SDS011;2927;49.366;8.530;2022-12-18T10:35:16;43.63;;;15.57;;
5801;SDS011;2927;49.366;8.530;2022-12-18T10:37:59;43.13;;;16.70;;
5801;SDS011;2927;49.366;8.530;2022-12-18T10:40:28;40.93;;;17.27;;
5801;SDS011;2927;49.366;8.530;2022-12-18T10:43:13;44.33;;;17.50;;
5801;SDS011;2927;49.366;8.530;2022-12-18T10:45:39;33.73;;;13.97;;
5801;SDS011;2927;49.366;8.530;2022-12-18T10:48:19;51.63;;;18.00;;
5801;SDS011;2927;49.366;8.530;2022-12-18T10:50:49;38.30;;;14.53;;
5801;SDS011;2927;49.366;8.530;2022-12-18T10:53:19;42.63;;;15.70;;
5801;SDS011;2927;49.366;8.530;2022-12-18T10:55:56;37.53;;;16.03;;
5801;SDS011;2927;49.366;8.530;2022-12-18T11:03:32;42.30;;;15.63;;
5801;SDS011;2927;49.366;8.530;2022-12-18T11:08:34;37.10;;;14.77;;
5801;SDS011;2927;49.366;8.530;2022-12-18T11:11:00;41.80;;;15.30;;
5801;SDS011;2927;49.366;8.530;2022-12-18T11:13:27;39.07;;;14.50;;
5801;SDS011;2927;49.366;8.530;2022-12-18T11:15:54;44.67;;;16.40;;
5801;SDS011;2927;49.366;8.530;2022-12-18T11:18:28;41.00;;;16.70;;
5801;SDS011;2927;49.366;8.530;2022-12-18T11:21:05;47.70;;;17.27;;
5801;SDS011;2927;49.366;8.530;2022-12-18T11:23:31;47.00;;;17.63;;
5801;SDS011;2927;49.366;8.530;2022-12-18T11:26:00;47.33;;;15.07;;
5801;SDS011;2927;49.366;8.530;2022-12-18T11:28:29;42.87;;;15.77;;
5801;SDS011;2927;49.366;8.530;2022-12-18T11:33:52;44.20;;;17.53;;
5801;SDS011;2927;49.366;8.530;2022-12-18T11:36:25;45.93;;;16.30;;
5801;SDS011;2927;49.366;8.530;2022-12-18T11:38:56;41.00;;;16.90;;
5801;SDS011;2927;49.366;8.530;2022-12-18T11:41:34;45.57;;;16.23;;
5801;SDS011;2927;49.366;8.530;2022-12-18T11:44:28;36.27;;;14.23;;
5801;SDS011;2927;49.366;8.530;2022-12-18T11:47:02;39.20;;;15.07;;
5801;SDS011;2927;49.366;8.530;2022-12-18T11:49:35;39.37;;;15.57;;
5801;SDS011;2927;49.366;8.530;2022-12-18T11:54:34;37.50;;;15.70;;
5801;SDS011;2927;49.366;8.530;2022-12-18T12:02:24;36.97;;;15.60;;
5801;SDS011;2927;49.366;8.530;2022-12-18T12:05:00;38.13;;;14.33;;
5801;SDS011;2927;49.366;8.530;2022-12-18T12:10:18;41.03;;;16.07;;
5801;SDS011;2927;49.366;8.530;2022-12-18T12:18:40;47.93;;;15.77;;
5801;SDS011;2927;49.366;8.530;2022-12-18T12:21:18;30.77;;;12.67;;
5801;SDS011;2927;49.366;8.530;2022-12-18T12:32:45;38.20;;;14.17;;
5801;SDS011;2927;49.366;8.530;2022-12-18T12:35:22;39.70;;;16.60;;
5801;SDS011;2927;49.366;8.530;2022-12-18T12:38:05;41.10;;;17.23;;
5801;SDS011;2927;49.366;8.530;2022-12-18T12:40:32;39.33;;;16.17;;
5801;SDS011;2927;49.366;8.530;2022-12-18T12:43:12;43.60;;;16.10;;
5801;SDS011;2927;49.366;8.530;2022-12-18T12:45:49;46.13;;;16.43;;
5801;SDS011;2927;49.366;8.530;2022-12-18T12:48:17;39.90;;;15.50;;
5801;SDS011;2927;49.366;8.530;2022-12-18T12:50:55;45.37;;;17.53;;
5801;SDS011;2927;49.366;8.530;2022-12-18T12:53:31;46.77;;;18.30;;
5801;SDS011;2927;49.366;8.530;2022-12-18T12:56:01;46.43;;;18.20;;
5801;SDS011;2927;49.366;8.530;2022-12-18T12:58:45;39.80;;;17.50;;
5801;SDS011;2927;49.366;8.530;2022-12-18T13:01:25;38.80;;;14.27;;
5801;SDS011;2927;49.366;8.530;2022-12-18T13:08:59;47.23;;;16.43;;
5801;SDS011;2927;49.366;8.530;2022-12-18T13:11:36;42.20;;;18.60;;
5801;SDS011;2927;49.366;8.530;2022-12-18T13:19:56;40.90;;;15.70;;
5801;SDS011;2927;49.366;8.530;2022-12-18T13:22:36;44.90;;;14.30;;
5801;SDS011;2927;49.366;8.530;2022-12-18T13:28:07;41.03;;;15.83;;
5801;SDS011;2927;49.366;8.530;2022-12-18T13:30:43;47.50;;;16.67;;
5801;SDS011;2927;49.366;8.530;2022-12-18T13:35:40;37.33;;;15.03;;
5801;SDS011;2927;49.366;8.530;2022-12-18T13:40:58;53.10;;;16.97;;
5801;SDS011;2927;49.366;8.530;2022-12-18T13:43:42;42.53;;;16.07;;
5801;SDS011;2927;49.366;8.530;2022-12-18T13:46:30;44.40;;;15.60;;
5801;SDS011;2927;49.366;8.530;2022-12-18T13:51:39;38.53;;;15.10;;
5801;SDS011;2927;49.366;8.530;2022-12-18T13:56:45;44.10;;;16.37;;
5801;SDS011;2927;49.366;8.530;2022-12-18T13:59:17;44.47;;;17.97;;
5801;SDS011;2927;49.366;8.530;2022-12-18T14:01:55;42.30;;;16.27;;
5801;SDS011;2927;49.366;8.530;2022-12-18T14:04:34;47.70;;;15.13;;
5801;SDS011;2927;49.366;8.530;2022-12-18T14:09:37;31.50;;;14.57;;
5801;SDS011;2927;49.366;8.530;2022-12-18T14:12:11;57.93;;;17.33;;
5801;SDS011;2927;49.366;8.530;2022-12-18T14:15:05;38.50;;;14.97;;
5801;SDS011;2927;49.366;8.530;2022-12-18T14:17:46;38.07;;;15.73;;
5801;SDS011;2927;49.366;8.530;2022-12-18T14:20:13;42.80;;;15.20;;
5801;SDS011;2927;49.366;8.530;2022-12-18T14:22:42;44.50;;;15.63;;
5801;SDS011;2927;49.366;8.530;2022-12-18T14:27:37;45.33;;;17.47;;
5801;SDS011;2927;49.366;8.530;2022-12-18T14:30:23;37.10;;;14.83;;
5801;SDS011;2927;49.366;8.530;2022-12-18T14:35:34;45.80;;;15.73;;
5801;SDS011;2927;49.366;8.530;2022-12-18T14:40:46;49.23;;;15.50;;
5801;SDS011;2927;49.366;8.530;2022-12-18T14:43:12;43.07;;;15.67;;
5801;SDS011;2927;49.366;8.530;2022-12-18T14:50:42;44.80;;;15.73;;
5801;SDS011;2927;49.366;8.530;2022-12-18T14:53:18;49.43;;;14.17;;
5801;SDS011;2927;49.366;8.530;2022-12-18T14:55:48;41.57;;;14.47;;
5801;SDS011;2927;49.366;8.530;2022-12-18T14:58:15;37.13;;;15.63;;
5801;SDS011;2927;49.366;8.530;2022-12-18T15:00:42;37.40;;;14.17;;
5801;SDS011;2927;49.366;8.530;2022-12-18T15:03:08;39.27;;;15.53;;
5801;SDS011;2927;49.366;8.530;2022-12-18T15:05:35;40.63;;;15.03;;
5801;SDS011;2927;49.366;8.530;2022-12-18T15:08:01;38.90;;;14.47;;
5801;SDS011;2927;49.366;8.530;2022-12-18T15:10:28;43.40;;;15.20;;
5801;SDS011;2927;49.366;8.530;2022-12-18T15:23:28;47.30;;;14.67;;
5801;SDS011;2927;49.366;8.530;2022-12-18T15:26:06;47.07;;;14.73;;
5801;SDS011;2927;49.366;8.530;2022-12-18T15:28:49;40.07;;;14.40;;
5801;SDS011;2927;49.366;8.530;2022-12-18T15:36:18;38.07;;;13.83;;
5801;SDS011;2927;49.366;8.530;2022-12-18T15:38:52;38.77;;;14.83;;
5801;SDS011;2927;49.366;8.530;2022-12-18T15:41:20;40.80;;;13.87;;
5801;SDS011;2927;49.366;8.530;2022-12-18T15:43:50;40.03;;;14.27;;
5801;SDS011;2927;49.366;8.530;2022-12-18T15:46:21;42.63;;;13.53;;
5801;SDS011;2927;49.366;8.530;2022-12-18T15:48:49;40.17;;;14.87;;
5801;SDS011;2927;49.366;8.530;2022-12-18T15:51:17;35.27;;;14.30;;
5801;SDS011;2927;49.366;8.530;2022-12-18T15:53:45;48.70;;;14.67;;
5801;SDS011;2927;49.366;8.530;2022-12-18T15:56:12;32.50;;;15.17;;
5801;SDS011;2927;49.366;8.530;2022-12-18T15:58:58;35.00;;;15.53;;
5801;SDS011;2927;49.366;8.530;2022-12-18T16:01:25;51.07;;;16.70;;
5801;SDS011;2927;49.366;8.530;2022-12-18T16:03:53;41.33;;;16.70;;
5801;SDS011;2927;49.366;8.530;2022-12-18T16:06:20;37.73;;;13.10;;
5801;SDS011;2927;49.366;8.530;2022-12-18T16:08:46;39.50;;;15.90;;
5801;SDS011;2927;49.366;8.530;2022-12-18T16:14:12;38.00;;;15.50;;
5801;SDS011;2927;49.366;8.530;2022-12-18T16:16:45;46.33;;;16.50;;
5801;SDS011;2927;49.366;8.530;2022-12-18T16:19:12;41.43;;;16.13;;
5801;SDS011;2927;49.366;8.530;2022-12-18T16:21:38;38.30;;;15.33;;
5801;SDS011;2927;49.366;8.530;2022-12-18T16:24:04;44.47;;;16.97;;
5801;SDS011;2927;49.366;8.530;2022-12-18T16:26:30;46.73;;;17.83;;
5801;SDS011;2927;49.366;8.530;2022-12-18T16:28:55;42.87;;;16.33;;
5801;SDS011;2927;49.366;8.530;2022-12-18T16:31:21;42.87;;;15.67;;
5801;SDS011;2927;49.366;8.530;2022-12-18T16:33:46;40.93;;;15.73;;
5801;SDS011;2927;49.366;8.530;2022-12-18T16:36:12;39.87;;;14.37;;
5801;SDS011;2927;49.366;8.530;2022-12-18T16:38:37;41.40;;;14.07;;
5801;SDS011;2927;49.366;8.530;2022-12-18T16:41:06;43.43;;;18.17;;
5801;SDS011;2927;49.366;8.530;2022-12-18T16:43:56;43.37;;;15.03;;
5801;SDS011;2927;49.366;8.530;2022-12-18T16:46:22;55.63;;;19.13;;
5801;SDS011;2927;49.366;8.530;2022-12-18T16:48:47;47.93;;;18.40;;
5801;SDS011;2927;49.366;8.530;2022-12-18T16:51:13;39.53;;;14.30;;
5801;SDS011;2927;49.366;8.530;2022-12-18T16:53:38;49.93;;;17.80;;
5801;SDS011;2927;49.366;8.530;2022-12-18T16:56:04;39.30;;;15.00;;
5801;SDS011;2927;49.366;8.530;2022-12-18T16:58:30;49.67;;;15.07;;
5801;SDS011;2927;49.366;8.530;2022-12-18T17:00:55;35.27;;;14.87;;
5801;SDS011;2927;49.366;8.530;2022-12-18T17:03:21;33.17;;;14.67;;
5801;SDS011;2927;49.366;8.530;2022-12-18T17:05:46;29.03;;;12.23;;
5801;SDS011;2927;49.366;8.530;2022-12-18T17:08:12;38.37;;;14.07;;
5801;SDS011;2927;49.366;8.530;2022-12-18T17:10:37;38.00;;;14.30;;
5801;SDS011;2927;49.366;8.530;2022-12-18T17:13:03;37.93;;;13.90;;
5801;SDS011;2927;49.366;8.530;2022-12-18T17:15:28;36.57;;;12.63;;
5801;SDS011;2927;49.366;8.530;2022-12-18T17:17:54;34.67;;;14.57;;
5801;SDS011;2927;49.366;8.530;2022-12-18T17:20:20;41.40;;;15.93;;